Time;durP1;ratioP1;P1;durP2;ratioP2;P2;SDS_P1;SDS_P2;PMS_P1;PMS_P2;Temp;Humidity;BMP_temperature;BMP_pressure;BME280_temperature;BME280_humidity;BME280_pressure;Samples;Min_cycle;Max_cycle;Signal;HPM_P1;HPM_P2
2024/02/29 00:01:07;;;;;;;8.00;7.00;;;;;;;;;;5035016;28;20223;-91
2024/02/29 00:03:35;;;;;;;10.63;7.65;;;;;;;;;;5038048;28;20198;-92
2024/02/29 00:06:03;;;;;;;9.80;8.35;;;;;;;;;;5038057;28;20191;-92
2024/02/29 00:08:30;;;;;;;8.32;7.03;;;;;;;;;;5038164;28;20187;-93
2024/02/29 00:10:59;;;;;;;11.23;8.82;;;;;;;;;;5038033;28;20230;-92
2024/02/29 00:13:27;;;;;;;9.00;8.02;;;;;;;;;;5037794;28;20219;-91
2024/02/29 00:15:55;;;;;;;8.20;7.45;;;;;;;;;;5038029;28;20203;-92
2024/02/29 00:18:22;;;;;;;9.68;7.95;;;;;;;;;;5036677;28;20226;-91
2024/02/29 00:20:50;;;;;;;9.05;7.80;;;;;;;;;;5036121;28;20195;-92
2024/02/29 00:23:18;;;;;;;12.40;9.07;;;;;;;;;;5036283;28;20211;-91
2024/02/29 00:25:46;;;;;;;9.43;6.68;;;;;;;;;;5036543;28;20201;-91
2024/02/29 00:28:15;;;;;;;8.50;7.40;;;;;;;;;;5035704;28;20195;-91
2024/02/29 00:30:42;;;;;;;8.07;6.78;;;;;;;;;;5033973;28;20207;-91
2024/02/29 00:33:10;;;;;;;5.45;4.95;;;;;;;;;;5033430;28;20234;-92
2024/02/29 00:35:37;;;;;;;4.53;4.15;;;;;;;;;;5034749;28;20221;-90
2024/02/29 00:38:05;;;;;;;5.13;4.63;;;;;;;;;;5033401;28;20199;-92
2024/02/29 00:40:33;;;;;;;4.95;4.55;;;;;;;;;;5036422;28;20187;-92
2024/02/29 00:43:00;;;;;;;5.10;4.57;;;;;;;;;;5036315;28;20241;-92
2024/02/29 00:45:29;;;;;;;4.40;3.95;;;;;;;;;;5035164;28;20213;-92
2024/02/29 00:47:57;;;;;;;7.32;5.38;;;;;;;;;;5037521;28;20187;-92
2024/02/29 00:50:25;;;;;;;7.60;6.60;;;;;;;;;;5037629;28;20245;-92
2024/02/29 00:52:52;;;;;;;6.40;5.25;;;;;;;;;;5037121;28;20231;-93
2024/02/29 00:55:20;;;;;;;7.72;5.82;;;;;;;;;;5037498;28;20207;-92
2024/02/29 00:57:49;;;;;;;7.32;6.18;;;;;;;;;;5037514;28;20175;-92
2024/02/29 01:00:18;;;;;;;6.22;5.22;;;;;;;;;;5037490;28;20191;-91
2024/02/29 01:02:47;;;;;;;7.43;6.25;;;;;;;;;;5037166;28;20207;-90
2024/02/29 01:05:15;;;;;;;5.30;4.35;;;;;;;;;;5037512;28;20217;-92
2024/02/29 01:07:43;;;;;;;6.72;5.93;;;;;;;;;;5037542;28;20205;-92
2024/02/29 01:10:12;;;;;;;7.95;6.88;;;;;;;;;;5037327;28;20191;-94
2024/02/29 01:12:41;;;;;;;8.05;6.00;;;;;;;;;;5037043;28;20235;-92
2024/02/29 01:15:10;;;;;;;6.00;5.47;;;;;;;;;;5037339;28;20183;-92
2024/02/29 01:17:38;;;;;;;8.57;7.00;;;;;;;;;;5037332;28;20187;-91
2024/02/29 01:20:08;;;;;;;6.90;6.20;;;;;;;;;;5035073;28;20221;-93
2024/02/29 01:22:36;;;;;;;6.15;5.55;;;;;;;;;;5033669;28;20198;-93
2024/02/29 01:25:04;;;;;;;9.15;6.43;;;;;;;;;;5034948;28;20199;-93
2024/02/29 01:27:31;;;;;;;7.20;6.20;;;;;;;;;;5033062;28;20211;-93
2024/02/29 01:29:59;;;;;;;7.45;6.30;;;;;;;;;;5033399;28;20211;-92
2024/02/29 01:32:27;;;;;;;6.65;5.82;;;;;;;;;;5036372;28;20233;-92
2024/02/29 01:34:54;;;;;;;6.88;5.50;;;;;;;;;;5039271;28;20207;-92
2024/02/29 01:37:23;;;;;;;5.35;4.70;;;;;;;;;;5039573;28;20207;-94
2024/02/29 01:39:51;;;;;;;5.13;4.60;;;;;;;;;;5040330;28;20199;-94
2024/02/29 01:42:18;;;;;;;4.80;4.30;;;;;;;;;;5040634;28;20179;-92
2024/02/29 01:44:54;;;;;;;6.50;4.82;;;;;;;;;;5040648;28;20194;-93
2024/02/29 01:47:22;;;;;;;7.50;6.25;;;;;;;;;;5038949;28;20262;-93
2024/02/29 01:49:50;;;;;;;5.15;4.65;;;;;;;;;;5039303;28;20217;-93
2024/02/29 01:52:19;;;;;;;5.45;4.95;;;;;;;;;;5037896;28;20226;-93
2024/02/29 01:54:48;;;;;;;5.30;4.80;;;;;;;;;;5036015;28;20199;-92
2024/02/29 01:57:16;;;;;;;6.20;5.47;;;;;;;;;;5038515;28;20259;-93
2024/02/29 01:59:44;;;;;;;5.57;4.85;;;;;;;;;;5039614;28;20214;-93
2024/02/29 02:02:12;;;;;;;6.43;4.38;;;;;;;;;;5039392;28;20222;-92
2024/02/29 02:04:39;;;;;;;4.65;4.15;;;;;;;;;;5039455;28;20198;-93
2024/02/29 02:07:07;;;;;;;4.63;3.78;;;;;;;;;;5038580;28;20195;-93
2024/02/29 02:09:40;;;;;;;5.50;4.57;;;;;;;;;;5037716;28;20203;-92
2024/02/29 02:12:11;;;;;;;4.80;4.35;;;;;;;;;;5036208;28;20245;-92
2024/02/29 02:14:39;;;;;;;5.75;5.10;;;;;;;;;;5036558;28;20274;-91
2024/02/29 02:17:07;;;;;;;8.57;6.32;;;;;;;;;;5036815;28;20187;-93
2024/02/29 02:19:34;;;;;;;6.85;5.70;;;;;;;;;;5037027;28;20203;-93
2024/02/29 02:22:05;;;;;;;7.45;5.95;;;;;;;;;;5036156;28;20203;-93
2024/02/29 02:24:34;;;;;;;5.25;4.75;;;;;;;;;;5036112;28;20278;-92
2024/02/29 02:27:02;;;;;;;5.65;5.00;;;;;;;;;;5036644;28;20221;-94
2024/02/29 02:29:29;;;;;;;6.30;5.40;;;;;;;;;;5036984;28;20215;-94
2024/02/29 02:31:57;;;;;;;4.53;4.13;;;;;;;;;;5036152;28;20199;-94
2024/02/29 02:34:25;;;;;;;4.20;3.80;;;;;;;;;;5035727;28;20246;-93
2024/02/29 02:36:52;;;;;;;4.10;3.75;;;;;;;;;;5038034;28;20202;-93
2024/02/29 02:39:21;;;;;;;5.18;4.53;;;;;;;;;;5038830;28;20329;-93
2024/02/29 02:41:49;;;;;;;5.78;4.63;;;;;;;;;;5039676;28;20186;-92
2024/02/29 02:44:17;;;;;;;6.15;5.55;;;;;;;;;;5036527;28;20214;-93
2024/02/29 02:46:44;;;;;;;7.85;5.50;;;;;;;;;;5037338;28;20203;-93
2024/02/29 02:49:13;;;;;;;6.30;5.70;;;;;;;;;;5037067;28;20195;-93
2024/02/29 02:51:41;;;;;;;6.63;5.38;;;;;;;;;;5037325;28;20255;-94
2024/02/29 02:54:09;;;;;;;4.97;4.45;;;;;;;;;;5036707;28;20237;-94
2024/02/29 02:56:37;;;;;;;5.60;4.72;;;;;;;;;;5036622;28;20191;-93
2024/02/29 02:59:05;;;;;;;8.40;5.80;;;;;;;;;;5037165;28;20218;-93
2024/02/29 03:01:33;;;;;;;6.72;5.15;;;;;;;;;;5036845;28;20191;-93
2024/02/29 03:04:00;;;;;;;5.97;5.38;;;;;;;;;;5037688;28;20241;-93
2024/02/29 03:06:28;;;;;;;5.50;4.40;;;;;;;;;;5038240;28;20207;-94
2024/02/29 03:08:55;;;;;;;5.97;5.38;;;;;;;;;;5036225;28;20222;-92
2024/02/29 03:11:23;;;;;;;4.68;4.07;;;;;;;;;;5036223;28;20214;-93
2024/02/29 03:13:53;;;;;;;6.57;5.65;;;;;;;;;;5036314;28;20242;-94
2024/02/29 03:16:23;;;;;;;7.13;5.45;;;;;;;;;;5035951;28;20207;-93
2024/02/29 03:18:51;;;;;;;5.90;4.80;;;;;;;;;;5035414;28;20207;-94
2024/02/29 03:21:19;;;;;;;6.07;4.88;;;;;;;;;;5035490;28;20203;-92
2024/02/29 03:23:47;;;;;;;4.88;4.40;;;;;;;;;;5035603;28;20254;-93
2024/02/29 03:26:15;;;;;;;5.95;5.30;;;;;;;;;;5035205;28;20230;-93
2024/02/29 03:28:43;;;;;;;5.90;5.22;;;;;;;;;;5036268;28;20211;-93
2024/02/29 03:31:13;;;;;;;6.47;4.93;;;;;;;;;;5036061;28;20290;-93
2024/02/29 03:33:41;;;;;;;6.88;5.78;;;;;;;;;;5036216;28;20258;-93
2024/02/29 03:36:09;;;;;;;6.50;5.05;;;;;;;;;;5036251;28;20274;-92
2024/02/29 03:38:37;;;;;;;6.18;5.22;;;;;;;;;;5035844;28;20505;-93
2024/02/29 03:41:06;;;;;;;5.18;4.68;;;;;;;;;;5037003;28;20193;-93
2024/02/29 03:43:34;;;;;;;6.00;5.13;;;;;;;;;;5036715;28;20234;-93
2024/02/29 03:46:02;;;;;;;4.85;4.35;;;;;;;;;;5036438;28;20187;-93
2024/02/29 03:48:31;;;;;;;5.93;4.30;;;;;;;;;;5035655;28;20266;-93
2024/02/29 03:50:59;;;;;;;8.25;6.10;;;;;;;;;;5036716;28;20229;-93
2024/02/29 03:53:26;;;;;;;6.70;6.00;;;;;;;;;;5037844;28;20416;-92
2024/02/29 03:55:54;;;;;;;6.68;5.57;;;;;;;;;;5038212;28;20207;-91
2024/02/29 03:58:22;;;;;;;6.57;5.15;;;;;;;;;;5038340;28;20190;-93
2024/02/29 04:00:49;;;;;;;6.18;4.30;;;;;;;;;;5038305;28;20191;-93
2024/02/29 04:03:17;;;;;;;5.10;4.60;;;;;;;;;;5038104;28;20214;-93
2024/02/29 04:05:46;;;;;;;5.05;4.55;;;;;;;;;;5038338;28;20179;-93
2024/02/29 04:08:14;;;;;;;5.35;4.85;;;;;;;;;;5037710;28;20194;-92
2024/02/29 04:10:46;;;;;;;6.90;5.82;;;;;;;;;;5036598;28;20191;-93
2024/02/29 04:13:13;;;;;;;6.28;4.72;;;;;;;;;;5037875;28;20218;-93
2024/02/29 04:15:41;;;;;;;8.23;6.07;;;;;;;;;;5034886;28;20203;-93
2024/02/29 04:18:09;;;;;;;6.75;5.63;;;;;;;;;;5035531;28;20214;-93
2024/02/29 04:20:36;;;;;;;5.85;5.13;;;;;;;;;;5033783;28;20221;-93
2024/02/29 04:23:06;;;;;;;5.43;4.65;;;;;;;;;;5033969;28;20223;-94
2024/02/29 04:25:33;;;;;;;6.28;5.13;;;;;;;;;;5033362;28;20207;-93
2024/02/29 04:28:01;;;;;;;4.88;4.38;;;;;;;;;;5033673;28;20207;-93
2024/02/29 04:30:29;;;;;;;7.53;5.00;;;;;;;;;;5033420;28;20214;-93
2024/02/29 04:32:58;;;;;;;5.20;4.70;;;;;;;;;;5032347;28;20237;-93
2024/02/29 04:35:26;;;;;;;5.10;4.60;;;;;;;;;;5034573;28;20209;-92
2024/02/29 04:37:54;;;;;;;4.75;4.20;;;;;;;;;;5035931;28;20507;-94
2024/02/29 04:40:23;;;;;;;6.60;4.35;;;;;;;;;;5033342;28;20198;-93
2024/02/29 04:42:50;;;;;;;4.70;4.22;;;;;;;;;;5034212;28;20321;-93
2024/02/29 04:45:18;;;;;;;5.32;4.80;;;;;;;;;;5032746;28;20215;-93
2024/02/29 04:47:46;;;;;;;6.10;5.50;;;;;;;;;;5032720;28;20203;-93
2024/02/29 04:50:13;;;;;;;6.88;5.85;;;;;;;;;;5032791;28;20221;-93
2024/02/29 04:52:41;;;;;;;7.45;5.50;;;;;;;;;;5033016;28;20219;-93
2024/02/29 04:55:09;;;;;;;5.68;4.90;;;;;;;;;;5032896;28;20214;-93
2024/02/29 04:57:38;;;;;;;6.43;5.10;;;;;;;;;;5033194;28;20403;-94
2024/02/29 05:00:10;;;;;;;6.82;5.85;;;;;;;;;;5036484;28;20194;-93
2024/02/29 05:02:38;;;;;;;6.03;5.07;;;;;;;;;;5037098;28;20214;-92
2024/02/29 05:05:06;;;;;;;5.68;5.07;;;;;;;;;;5036879;28;20202;-93
2024/02/29 05:07:34;;;;;;;5.32;4.82;;;;;;;;;;5036845;28;20203;-93
2024/02/29 05:10:02;;;;;;;4.80;4.25;;;;;;;;;;5038005;28;20203;-93
2024/02/29 05:12:30;;;;;;;5.63;4.85;;;;;;;;;;5037336;28;20214;-93
2024/02/29 05:14:59;;;;;;;7.82;6.50;;;;;;;;;;5036719;28;20243;-94
2024/02/29 05:17:26;;;;;;;5.25;4.75;;;;;;;;;;5036945;28;20217;-92
2024/02/29 05:19:56;;;;;;;6.45;5.53;;;;;;;;;;5038792;28;20211;-93
2024/02/29 05:22:24;;;;;;;5.93;4.97;;;;;;;;;;5038019;28;20195;-93
2024/02/29 05:24:51;;;;;;;5.97;5.38;;;;;;;;;;5037719;28;20206;-94
2024/02/29 05:27:19;;;;;;;4.95;4.28;;;;;;;;;;5034288;28;20214;-93
2024/02/29 05:29:47;;;;;;;5.60;4.75;;;;;;;;;;5033530;28;20199;-92
2024/02/29 05:32:16;;;;;;;4.90;4.25;;;;;;;;;;5035415;28;20215;-94
2024/02/29 05:34:45;;;;;;;6.53;5.82;;;;;;;;;;5035333;28;20226;-92
2024/02/29 05:37:13;;;;;;;9.60;7.68;;;;;;;;;;5035722;28;20216;-92
2024/02/29 05:39:42;;;;;;;6.63;5.55;;;;;;;;;;5034617;28;20221;-92
2024/02/29 05:42:10;;;;;;;6.72;5.13;;;;;;;;;;5040550;28;20239;-93
2024/02/29 05:44:38;;;;;;;6.68;5.20;;;;;;;;;;5040870;28;20187;-93
2024/02/29 05:47:07;;;;;;;4.90;4.50;;;;;;;;;;5037964;28;20199;-93
2024/02/29 05:49:36;;;;;;;9.43;5.72;;;;;;;;;;5035432;28;20237;-92
2024/02/29 05:52:04;;;;;;;6.50;5.43;;;;;;;;;;5034131;28;20203;-93
2024/02/29 05:54:32;;;;;;;6.25;5.57;;;;;;;;;;5034266;28;20238;-93
2024/02/29 05:57:00;;;;;;;5.53;5.03;;;;;;;;;;5035222;28;20206;-93
2024/02/29 05:59:27;;;;;;;6.60;5.45;;;;;;;;;;5035858;28;20211;-93
2024/02/29 06:01:55;;;;;;;6.22;5.45;;;;;;;;;;5035802;28;20218;-93
2024/02/29 06:04:23;;;;;;;5.05;4.40;;;;;;;;;;5035514;28;20223;-93
2024/02/29 06:06:52;;;;;;;6.70;5.78;;;;;;;;;;5035390;28;20576;-93
2024/02/29 06:09:19;;;;;;;6.60;5.90;;;;;;;;;;5035303;28;20195;-92
2024/02/29 06:11:48;;;;;;;7.85;7.05;;;;;;;;;;5035130;28;20207;-93
2024/02/29 06:14:17;;;;;;;7.82;5.97;;;;;;;;;;5034792;28;20286;-93
2024/02/29 06:16:44;;;;;;;7.47;6.32;;;;;;;;;;5035378;28;20199;-93
2024/02/29 06:19:12;;;;;;;7.45;5.88;;;;;;;;;;5035110;28;20207;-93
2024/02/29 06:21:40;;;;;;;9.95;8.00;;;;;;;;;;5034669;28;20249;-93
2024/02/29 06:24:09;;;;;;;12.25;8.90;;;;;;;;;;5034442;28;20222;-93
2024/02/29 06:26:36;;;;;;;13.57;9.70;;;;;;;;;;5034008;28;20199;-92
2024/02/29 06:29:04;;;;;;;10.95;9.13;;;;;;;;;;5034123;28;20210;-93
2024/02/29 06:31:32;;;;;;;8.32;7.10;;;;;;;;;;5033399;28;20222;-94
2024/02/29 06:33:59;;;;;;;8.93;7.57;;;;;;;;;;5034445;28;20239;-94
2024/02/29 06:36:27;;;;;;;14.38;9.23;;;;;;;;;;5034774;28;20223;-92
2024/02/29 06:38:54;;;;;;;14.35;10.15;;;;;;;;;;5035708;28;20199;-92
2024/02/29 06:41:24;;;;;;;11.57;8.70;;;;;;;;;;5038321;28;20198;-94
2024/02/29 06:43:51;;;;;;;11.20;7.68;;;;;;;;;;5036404;28;20223;-92
2024/02/29 06:46:19;;;;;;;7.85;6.90;;;;;;;;;;5035002;28;20207;-93
2024/02/29 06:48:46;;;;;;;9.43;7.40;;;;;;;;;;5035125;28;20195;-94
2024/02/29 06:51:14;;;;;;;9.00;7.60;;;;;;;;;;5035348;28;20210;-93
2024/02/29 06:53:42;;;;;;;8.43;6.68;;;;;;;;;;5035328;28;20241;-93
2024/02/29 06:56:09;;;;;;;8.80;7.90;;;;;;;;;;5035988;28;20227;-93
2024/02/29 06:58:38;;;;;;;10.63;7.70;;;;;;;;;;5037117;28;20206;-93
2024/02/29 07:01:06;;;;;;;13.15;10.07;;;;;;;;;;5037772;28;20218;-93
2024/02/29 07:03:33;;;;;;;9.60;7.47;;;;;;;;;;5037550;28;20207;-93
2024/02/29 07:06:01;;;;;;;8.95;7.07;;;;;;;;;;5038514;28;20198;-92
2024/02/29 07:08:29;;;;;;;8.35;6.80;;;;;;;;;;5037579;28;20210;-93
2024/02/29 07:10:56;;;;;;;8.27;7.43;;;;;;;;;;5038529;28;20191;-94
2024/02/29 07:13:24;;;;;;;10.00;8.07;;;;;;;;;;5037932;28;20254;-93
2024/02/29 07:15:53;;;;;;;12.82;8.20;;;;;;;;;;5037836;28;20217;-93
2024/02/29 07:18:21;;;;;;;13.15;9.80;;;;;;;;;;5038598;28;20202;-92
2024/02/29 07:20:49;;;;;;;10.13;8.30;;;;;;;;;;5039030;28;20206;-93
2024/02/29 07:23:18;;;;;;;11.75;8.57;;;;;;;;;;5037726;28;20229;-92
2024/02/29 07:25:45;;;;;;;10.48;8.68;;;;;;;;;;5037968;28;20183;-93
2024/02/29 07:28:13;;;;;;;10.65;7.80;;;;;;;;;;5037410;28;20210;-93
2024/02/29 07:30:40;;;;;;;10.43;7.80;;;;;;;;;;5036109;28;20202;-93
2024/02/29 07:33:09;;;;;;;13.70;9.25;;;;;;;;;;5037203;28;20223;-93
2024/02/29 07:35:37;;;;;;;10.68;8.07;;;;;;;;;;5035923;28;20223;-93
2024/02/29 07:38:05;;;;;;;14.43;10.43;;;;;;;;;;5038314;28;20210;-93
2024/02/29 07:40:33;;;;;;;12.27;9.38;;;;;;;;;;5038706;28;20187;-94
2024/02/29 07:43:01;;;;;;;12.98;9.45;;;;;;;;;;5038534;28;20207;-93
2024/02/29 07:45:29;;;;;;;12.05;9.00;;;;;;;;;;5038885;28;20202;-92
2024/02/29 07:47:56;;;;;;;10.63;9.38;;;;;;;;;;5038910;28;20186;-93
2024/02/29 07:50:25;;;;;;;10.93;9.48;;;;;;;;;;5038778;28;20210;-93
2024/02/29 07:52:53;;;;;;;11.50;9.60;;;;;;;;;;5038284;28;20218;-93
2024/02/29 07:55:21;;;;;;;13.98;9.50;;;;;;;;;;5037173;28;20229;-93
2024/02/29 07:57:49;;;;;;;13.15;9.55;;;;;;;;;;5037035;28;20194;-92
2024/02/29 08:00:17;;;;;;;11.30;8.90;;;;;;;;;;5037057;28;20206;-93
2024/02/29 08:02:46;;;;;;;12.43;10.55;;;;;;;;;;5038042;28;20211;-93
2024/02/29 08:05:14;;;;;;;10.57;8.85;;;;;;;;;;5038488;28;20204;-93
2024/02/29 08:07:46;;;;;;;13.38;9.52;;;;;;;;;;5038467;28;20262;-93
2024/02/29 08:10:15;;;;;;;11.27;9.85;;;;;;;;;;5038308;28;20227;-93
2024/02/29 08:12:44;;;;;;;13.65;9.45;;;;;;;;;;5037945;28;20211;-93
2024/02/29 08:15:12;;;;;;;14.73;10.40;;;;;;;;;;5038016;28;20199;-93
2024/02/29 08:17:39;;;;;;;13.90;10.80;;;;;;;;;;5037950;28;20203;-93
2024/02/29 08:20:10;;;;;;;12.43;10.45;;;;;;;;;;5038058;28;20187;-93
2024/02/29 08:22:39;;;;;;;12.43;10.13;;;;;;;;;;5037833;28;20202;-93
2024/02/29 08:25:09;;;;;;;12.82;9.10;;;;;;;;;;5038272;28;20179;-93
2024/02/29 08:27:37;;;;;;;13.52;10.30;;;;;;;;;;5038256;28;20217;-92
2024/02/29 08:30:06;;;;;;;14.45;9.63;;;;;;;;;;5038223;28;20246;-93
2024/02/29 08:32:34;;;;;;;11.80;9.27;;;;;;;;;;5037777;28;20210;-93
2024/02/29 08:35:02;;;;;;;11.75;9.23;;;;;;;;;;5038045;28;20194;-93
2024/02/29 08:37:30;;;;;;;12.50;9.05;;;;;;;;;;5037164;28;20215;-93
2024/02/29 08:39:57;;;;;;;12.13;8.43;;;;;;;;;;5037512;28;20199;-93
2024/02/29 08:42:30;;;;;;;12.50;9.98;;;;;;;;;;5036927;28;20183;-94
2024/02/29 08:44:58;;;;;;;12.90;8.88;;;;;;;;;;5038018;28;20210;-93
2024/02/29 08:47:25;;;;;;;11.43;9.15;;;;;;;;;;5037739;28;20195;-94
2024/02/29 08:49:53;;;;;;;11.25;8.93;;;;;;;;;;5037715;28;20190;-93
2024/02/29 08:52:21;;;;;;;10.38;8.57;;;;;;;;;;5037267;28;20183;-93
2024/02/29 08:54:48;;;;;;;9.70;8.65;;;;;;;;;;5106807;23;20313;-92
2024/02/29 08:57:17;;;;;;;12.82;9.05;;;;;;;;;;5014980;28;20334;-92
2024/02/29 08:59:46;;;;;;;9.20;7.93;;;;;;;;;;5023462;28;20681;-92
2024/02/29 09:02:13;;;;;;;13.18;9.60;;;;;;;;;;5013532;28;20286;-92
2024/02/29 09:04:41;;;;;;;10.73;8.63;;;;;;;;;;5016635;28;20250;-92
2024/02/29 09:07:09;;;;;;;10.70;9.32;;;;;;;;;;5013764;28;20231;-91
2024/02/29 09:09:36;;;;;;;11.38;9.27;;;;;;;;;;5014088;28;20289;-92
2024/02/29 09:12:06;;;;;;;11.85;8.93;;;;;;;;;;5013426;28;20286;-92
2024/02/29 09:14:33;;;;;;;11.77;8.07;;;;;;;;;;5013253;28;20488;-90
2024/02/29 09:17:03;;;;;;;13.52;10.07;;;;;;;;;;5013430;28;20672;-92
2024/02/29 09:19:31;;;;;;;13.95;10.80;;;;;;;;;;5028365;28;20203;-94
2024/02/29 09:21:58;;;;;;;13.38;10.70;;;;;;;;;;5036019;28;20187;-92
2024/02/29 09:24:26;;;;;;;11.52;8.82;;;;;;;;;;5037248;28;20219;-92
2024/02/29 09:26:54;;;;;;;13.77;10.27;;;;;;;;;;5036256;28;20194;-94
2024/02/29 09:29:21;;;;;;;9.98;8.57;;;;;;;;;;5025047;28;20230;-94
2024/02/29 09:31:49;;;;;;;12.75;9.75;;;;;;;;;;5018133;28;20229;-93
2024/02/29 09:34:18;;;;;;;9.93;7.90;;;;;;;;;;5013875;28;20233;-92
2024/02/29 09:36:49;;;;;;;13.52;9.60;;;;;;;;;;5012971;28;20853;-92
2024/02/29 09:39:16;;;;;;;12.73;9.75;;;;;;;;;;5012847;28;20203;-92
2024/02/29 09:41:44;;;;;;;11.43;8.63;;;;;;;;;;5013563;28;20237;-91
2024/02/29 09:44:12;;;;;;;9.57;8.57;;;;;;;;;;5015362;28;20323;-92
2024/02/29 09:46:40;;;;;;;11.93;9.05;;;;;;;;;;5013828;28;20213;-91
2024/02/29 09:49:08;;;;;;;12.63;9.32;;;;;;;;;;5013341;28;20203;-91
2024/02/29 09:51:39;;;;;;;10.13;8.90;;;;;;;;;;5013042;28;20282;-91
2024/02/29 09:54:07;;;;;;;13.73;10.25;;;;;;;;;;5015316;28;20708;-90
2024/02/29 09:56:35;;;;;;;10.73;8.32;;;;;;;;;;5016890;28;20219;-91
2024/02/29 09:59:03;;;;;;;10.75;9.23;;;;;;;;;;5016945;28;20234;-92
2024/02/29 10:01:31;;;;;;;11.75;10.55;;;;;;;;;;5017038;28;20199;-92
2024/02/29 10:04:01;;;;;;;11.57;9.95;;;;;;;;;;5016751;28;20306;-91
2024/02/29 10:06:28;;;;;;;12.48;9.57;;;;;;;;;;5016896;28;20234;-93
2024/02/29 10:08:58;;;;;;;12.30;9.13;;;;;;;;;;5017314;28;20286;-92
2024/02/29 10:11:28;;;;;;;12.65;9.63;;;;;;;;;;5017013;28;20267;-92
2024/02/29 10:13:57;;;;;;;12.85;9.88;;;;;;;;;;5017081;28;20693;-92
2024/02/29 10:16:24;;;;;;;13.23;11.43;;;;;;;;;;5017020;28;20218;-91
2024/02/29 10:18:52;;;;;;;12.95;10.60;;;;;;;;;;5016677;28;20641;-92
2024/02/29 10:21:20;;;;;;;13.80;11.52;;;;;;;;;;5016527;28;20223;-92
2024/02/29 10:23:47;;;;;;;12.50;9.90;;;;;;;;;;5016956;28;20242;-91
2024/02/29 10:26:16;;;;;;;14.63;10.07;;;;;;;;;;5017623;28;20664;-91
2024/02/29 10:28:44;;;;;;;12.98;9.77;;;;;;;;;;5017501;28;20226;-91
2024/02/29 10:31:11;;;;;;;9.45;8.23;;;;;;;;;;5017019;28;20286;-91
2024/02/29 10:33:39;;;;;;;10.20;9.05;;;;;;;;;;5016818;28;20219;-90
2024/02/29 10:36:13;;;;;;;13.18;9.70;;;;;;;;;;5017184;28;20294;-92
2024/02/29 10:38:40;;;;;;;15.35;11.70;;;;;;;;;;5016980;28;20227;-92
2024/02/29 10:41:10;;;;;;;14.05;10.82;;;;;;;;;;5017404;28;20285;-92
2024/02/29 10:43:39;;;;;;;13.20;10.57;;;;;;;;;;5017400;28;20310;-91
2024/02/29 10:46:08;;;;;;;12.30;9.65;;;;;;;;;;5017281;28;20282;-91
2024/02/29 10:48:49;;;;;;;9.90;8.15;;;;;;;;;;5016473;28;20285;-91
2024/02/29 10:51:24;;;;;;;11.27;7.90;;;;;;;;;;5015919;28;20206;-91
2024/02/29 10:54:01;;;;;;;10.75;8.88;;;;;;;;;;5016145;28;20230;-90
2024/02/29 10:56:30;;;;;;;12.57;10.23;;;;;;;;;;5019124;28;20209;-91
2024/02/29 10:59:04;;;;;;;13.35;10.13;;;;;;;;;;5015978;28;20326;-92
2024/02/29 11:01:33;;;;;;;12.80;9.90;;;;;;;;;;5016237;28;20209;-91
2024/02/29 11:04:00;;;;;;;13.93;11.32;;;;;;;;;;5016311;28;20309;-91
2024/02/29 11:06:30;;;;;;;12.23;10.05;;;;;;;;;;5015684;28;20579;-91
2024/02/29 11:08:57;;;;;;;12.13;10.73;;;;;;;;;;5016623;28;20725;-91
2024/02/29 11:11:26;;;;;;;14.00;10.50;;;;;;;;;;5016850;28;20227;-91
2024/02/29 11:14:08;;;;;;;12.02;10.32;;;;;;;;;;5016237;28;20326;-92
2024/02/29 11:16:39;;;;;;;12.60;9.52;;;;;;;;;;5016819;28;20289;-91
2024/02/29 11:19:07;;;;;;;11.00;9.30;;;;;;;;;;5019490;28;20222;-94
2024/02/29 11:21:35;;;;;;;13.35;11.77;;;;;;;;;;5020457;28;20223;-92
2024/02/29 11:24:03;;;;;;;12.95;11.07;;;;;;;;;;5016654;28;20313;-92
2024/02/29 11:26:32;;;;;;;12.95;10.98;;;;;;;;;;5015732;28;20210;-91
2024/02/29 11:29:00;;;;;;;12.57;10.98;;;;;;;;;;5016170;28;20243;-91
2024/02/29 11:31:29;;;;;;;13.82;10.93;;;;;;;;;;5018512;28;20281;-90
2024/02/29 11:33:57;;;;;;;10.52;8.75;;;;;;;;;;5016523;28;20375;-92
2024/02/29 11:36:25;;;;;;;12.23;10.13;;;;;;;;;;5017973;28;20234;-92
2024/02/29 11:38:53;;;;;;;12.45;10.18;;;;;;;;;;5017265;28;20247;-93
2024/02/29 11:41:21;;;;;;;11.80;9.88;;;;;;;;;;5022310;28;20226;-92
2024/02/29 11:43:49;;;;;;;11.05;9.80;;;;;;;;;;5026662;28;20242;-93
2024/02/29 11:46:17;;;;;;;11.27;8.63;;;;;;;;;;5029536;28;20227;-94
2024/02/29 11:48:48;;;;;;;11.43;9.05;;;;;;;;;;5024617;28;20241;-92
2024/02/29 11:51:16;;;;;;;12.30;10.02;;;;;;;;;;5016133;28;20191;-91
2024/02/29 11:53:45;;;;;;;14.18;10.88;;;;;;;;;;5016408;28;20601;-92
2024/02/29 11:56:12;;;;;;;12.32;10.20;;;;;;;;;;5016760;28;20295;-91
2024/02/29 11:58:41;;;;;;;15.30;12.25;;;;;;;;;;5016271;28;20255;-90
2024/02/29 12:01:11;;;;;;;11.20;9.02;;;;;;;;;;5015131;28;20681;-88
2024/02/29 12:03:39;;;;;;;10.75;8.95;;;;;;;;;;5015641;28;20864;-89
2024/02/29 12:06:08;;;;;;;11.10;9.30;;;;;;;;;;5016555;28;20281;-92
2024/02/29 12:08:36;;;;;;;11.65;10.35;;;;;;;;;;5015814;28;20298;-90
2024/02/29 12:11:03;;;;;;;9.75;8.68;;;;;;;;;;5015315;28;20282;-91
2024/02/29 12:13:31;;;;;;;8.95;7.88;;;;;;;;;;5014707;28;20656;-91
2024/02/29 12:15:59;;;;;;;11.63;9.38;;;;;;;;;;5015090;28;20281;-91
2024/02/29 12:18:27;;;;;;;10.88;8.02;;;;;;;;;;5015418;28;20663;-91
2024/02/29 12:20:55;;;;;;;9.70;8.07;;;;;;;;;;5015621;28;20289;-90
2024/02/29 12:23:24;;;;;;;12.60;9.70;;;;;;;;;;5014970;28;20301;-91
2024/02/29 12:25:52;;;;;;;11.68;9.50;;;;;;;;;;5015766;28;20199;-93
2024/02/29 12:28:19;;;;;;;12.93;10.93;;;;;;;;;;5015745;28;20254;-90
2024/02/29 12:30:49;;;;;;;11.35;9.07;;;;;;;;;;5014567;28;20200;-90
2024/02/29 12:33:18;;;;;;;10.13;8.18;;;;;;;;;;5014012;28;20237;-90
2024/02/29 12:35:45;;;;;;;12.73;9.90;;;;;;;;;;5014366;28;20586;-91
2024/02/29 12:38:16;;;;;;;10.32;9.02;;;;;;;;;;5014205;28;20306;-90
2024/02/29 12:40:46;;;;;;;10.80;8.25;;;;;;;;;;5014920;28;20717;-91
2024/02/29 12:43:15;;;;;;;8.63;7.72;;;;;;;;;;5015058;28;20645;-91
2024/02/29 12:45:44;;;;;;;8.43;7.40;;;;;;;;;;5014686;28;20213;-90
2024/02/29 12:48:11;;;;;;;10.73;8.55;;;;;;;;;;5014233;28;20202;-90
2024/02/29 12:50:40;;;;;;;8.52;6.80;;;;;;;;;;5013964;28;20265;-90
2024/02/29 12:53:08;;;;;;;6.43;5.72;;;;;;;;;;5013825;28;20223;-90
2024/02/29 12:55:35;;;;;;;9.65;7.63;;;;;;;;;;5014301;28;20210;-90
2024/02/29 12:58:05;;;;;;;8.52;6.88;;;;;;;;;;5014346;28;20272;-90
2024/02/29 13:00:33;;;;;;;8.52;6.70;;;;;;;;;;5014284;28;20206;-90
2024/02/29 13:03:01;;;;;;;9.93;7.03;;;;;;;;;;5014454;28;20223;-91
2024/02/29 13:05:28;;;;;;;6.30;5.55;;;;;;;;;;5014690;28;20222;-92
2024/02/29 13:07:56;;;;;;;7.70;6.53;;;;;;;;;;5018268;28;20290;-92
2024/02/29 13:10:23;;;;;;;6.07;5.28;;;;;;;;;;5026814;28;20231;-93
2024/02/29 13:12:51;;;;;;;6.32;5.70;;;;;;;;;;5023648;28;20747;-91
2024/02/29 13:15:20;;;;;;;8.23;7.07;;;;;;;;;;5017334;28;20203;-90
2024/02/29 13:17:48;;;;;;;6.20;5.28;;;;;;;;;;5016253;28;20597;-91
2024/02/29 13:20:16;;;;;;;9.65;7.63;;;;;;;;;;5016076;28;20599;-91
2024/02/29 13:22:43;;;;;;;6.80;6.05;;;;;;;;;;5015261;28;20290;-93
2024/02/29 13:25:11;;;;;;;7.40;6.05;;;;;;;;;;5015487;28;20199;-93
2024/02/29 13:27:38;;;;;;;7.63;6.40;;;;;;;;;;5014978;28;20215;-93
2024/02/29 13:30:09;;;;;;;5.88;5.18;;;;;;;;;;5018722;28;20299;-92
2024/02/29 13:32:38;;;;;;;7.00;6.30;;;;;;;;;;5019266;28;20245;-94
2024/02/29 13:35:06;;;;;;;9.00;6.78;;;;;;;;;;5018872;28;20222;-94
2024/02/29 13:37:34;;;;;;;7.30;6.03;;;;;;;;;;5025506;28;20229;-94
2024/02/29 13:40:03;;;;;;;8.57;7.10;;;;;;;;;;5021908;28;20330;-93
2024/02/29 13:42:31;;;;;;;9.63;7.43;;;;;;;;;;5031048;28;20203;-93
2024/02/29 13:44:59;;;;;;;8.88;6.07;;;;;;;;;;5026484;28;20252;-92
2024/02/29 13:47:27;;;;;;;6.90;6.20;;;;;;;;;;5032019;28;20221;-93
2024/02/29 13:49:56;;;;;;;6.82;5.80;;;;;;;;;;5037753;28;20202;-92
2024/02/29 13:52:24;;;;;;;6.78;5.72;;;;;;;;;;5026810;28;20222;-91
2024/02/29 13:54:51;;;;;;;6.60;6.00;;;;;;;;;;5021606;28;20261;-93
2024/02/29 13:57:19;;;;;;;5.90;5.32;;;;;;;;;;5025616;28;20234;-92
2024/02/29 13:59:46;;;;;;;6.53;5.82;;;;;;;;;;5018811;28;20667;-92
2024/02/29 14:02:14;;;;;;;6.28;5.68;;;;;;;;;;5018093;28;20195;-92
2024/02/29 14:04:42;;;;;;;6.45;5.32;;;;;;;;;;5018520;28;20219;-92
2024/02/29 14:07:12;;;;;;;8.43;6.05;;;;;;;;;;5022028;28;20225;-92
2024/02/29 14:09:39;;;;;;;7.07;6.18;;;;;;;;;;5024113;28;20199;-92
2024/02/29 14:12:07;;;;;;;7.75;5.68;;;;;;;;;;5019271;28;20230;-92
2024/02/29 14:14:36;;;;;;;5.72;5.10;;;;;;;;;;5018620;28;20310;-93
2024/02/29 14:17:04;;;;;;;5.47;4.97;;;;;;;;;;5021478;28;20234;-92
2024/02/29 14:19:32;;;;;;;7.20;6.47;;;;;;;;;;5020236;28;20223;-93
2024/02/29 14:22:00;;;;;;;8.20;6.53;;;;;;;;;;5020512;28;20242;-93
2024/02/29 14:24:29;;;;;;;7.20;6.50;;;;;;;;;;5023477;28;20222;-93
2024/02/29 14:26:56;;;;;;;7.82;6.35;;;;;;;;;;5018659;28;20737;-92
2024/02/29 14:29:24;;;;;;;7.22;5.57;;;;;;;;;;5017960;28;20657;-92
2024/02/29 14:31:51;;;;;;;11.85;8.40;;;;;;;;;;5025579;28;20203;-92
2024/02/29 14:34:20;;;;;;;6.80;5.95;;;;;;;;;;5038038;28;20218;-91
2024/02/29 14:36:47;;;;;;;6.78;6.10;;;;;;;;;;5039413;28;20191;-92
2024/02/29 14:39:15;;;;;;;8.75;6.63;;;;;;;;;;5039333;28;20278;-92
2024/02/29 14:41:44;;;;;;;8.77;7.85;;;;;;;;;;5039703;28;20191;-91